sensor_id;sensor_type;location;lat;lon;timestamp;pressure;altitude;pressure_sealevel;temperature;humidity
39897;BME280;25567;48.276;14.242;2023-03-19T00:00:26;98155.91;;;3.90;86.31
39897;BME280;25567;48.276;14.242;2023-03-19T00:02:53;98163.97;;;3.89;86.33
39897;BME280;25567;48.276;14.242;2023-03-19T00:05:20;98167.16;;;3.84;86.31
39897;BME280;25567;48.276;14.242;2023-03-19T00:07:47;98168.78;;;3.85;86.73
39897;BME280;25567;48.276;14.242;2023-03-19T00:10:13;98179.66;;;3.82;86.35
39897;BME280;25567;48.276;14.242;2023-03-19T00:12:40;98185.13;;;3.87;86.36
39897;BME280;25567;48.276;14.242;2023-03-19T00:15:07;98176.00;;;3.83;86.29
39897;BME280;25567;48.276;14.242;2023-03-19T00:17:40;98180.03;;;3.79;86.61
39897;BME280;25567;48.276;14.242;2023-03-19T00:20:08;98180.72;;;3.66;86.11
39897;BME280;25567;48.276;14.242;2023-03-19T00:22:36;98180.19;;;3.71;86.00
39897;BME280;25567;48.276;14.242;2023-03-19T00:25:03;98182.16;;;3.68;86.24
39897;BME280;25567;48.276;14.242;2023-03-19T00:27:29;98180.13;;;3.64;86.58
39897;BME280;25567;48.276;14.242;2023-03-19T00:29:56;98181.31;;;3.61;86.50
39897;BME280;25567;48.276;14.242;2023-03-19T00:32:23;98176.03;;;3.55;86.77
39897;BME280;25567;48.276;14.242;2023-03-19T00:34:50;98169.28;;;3.45;86.30
39897;BME280;25567;48.276;14.242;2023-03-19T00:37:17;98170.03;;;3.39;85.53
39897;BME280;25567;48.276;14.242;2023-03-19T00:39:44;98174.22;;;3.33;86.44
39897;BME280;25567;48.276;14.242;2023-03-19T00:42:11;98172.25;;;3.36;86.40
39897;BME280;25567;48.276;14.242;2023-03-19T00:44:37;98178.72;;;3.40;87.57
39897;BME280;25567;48.276;14.242;2023-03-19T00:47:04;98172.66;;;3.39;87.76
39897;BME280;25567;48.276;14.242;2023-03-19T00:49:32;98177.28;;;3.37;87.76
39897;BME280;25567;48.276;14.242;2023-03-19T00:51:59;98176.72;;;3.42;87.85
39897;BME280;25567;48.276;14.242;2023-03-19T00:54:26;98176.28;;;3.38;87.09
39897;BME280;25567;48.276;14.242;2023-03-19T00:56:57;98173.00;;;3.29;87.91
39897;BME280;25567;48.276;14.242;2023-03-19T00:59:24;98168.78;;;3.35;88.37
39897;BME280;25567;48.276;14.242;2023-03-19T01:01:51;98171.41;;;3.35;87.65
39897;BME280;25567;48.276;14.242;2023-03-19T01:04:18;98172.16;;;3.29;88.24
39897;BME280;25567;48.276;14.242;2023-03-19T01:06:45;98170.19;;;3.31;88.15
39897;BME280;25567;48.276;14.242;2023-03-19T01:09:11;98172.00;;;3.30;87.85
39897;BME280;25567;48.276;14.242;2023-03-19T01:11:38;98173.59;;;3.31;88.43
39897;BME280;25567;48.276;14.242;2023-03-19T01:14:05;98179.88;;;3.30;88.06
39897;BME280;25567;48.276;14.242;2023-03-19T01:16:31;98175.88;;;3.34;88.29
39897;BME280;25567;48.276;14.242;2023-03-19T01:19:00;98171.41;;;3.35;88.33
39897;BME280;25567;48.276;14.242;2023-03-19T01:21:27;98177.66;;;3.34;88.04
39897;BME280;25567;48.276;14.242;2023-03-19T01:23:57;98167.00;;;3.36;87.55
39897;BME280;25567;48.276;14.242;2023-03-19T01:26:24;98159.88;;;3.29;88.38
39897;BME280;25567;48.276;14.242;2023-03-19T01:28:50;98167.56;;;3.31;87.62
39897;BME280;25567;48.276;14.242;2023-03-19T01:31:18;98166.31;;;3.27;88.68
39897;BME280;25567;48.276;14.242;2023-03-19T01:33:44;98160.44;;;3.25;89.13
39897;BME280;25567;48.276;14.242;2023-03-19T01:36:12;98161.63;;;3.22;89.03
39897;BME280;25567;48.276;14.242;2023-03-19T01:38:39;98170.50;;;3.21;88.60
39897;BME280;25567;48.276;14.242;2023-03-19T01:41:05;98171.50;;;3.20;88.87
39897;BME280;25567;48.276;14.242;2023-03-19T01:43:33;98185.59;;;3.19;89.01
39897;BME280;25567;48.276;14.242;2023-03-19T01:46:05;98183.34;;;3.16;88.99
39897;BME280;25567;48.276;14.242;2023-03-19T01:48:49;98177.53;;;3.21;88.97
39897;BME280;25567;48.276;14.242;2023-03-19T01:51:19;98175.06;;;3.12;88.97
39897;BME280;25567;48.276;14.242;2023-03-19T01:53:51;98177.13;;;3.17;88.82
39897;BME280;25567;48.276;14.242;2023-03-19T01:56:22;98184.34;;;3.15;88.52
39897;BME280;25567;48.276;14.242;2023-03-19T01:58:52;98178.25;;;3.08;88.88
39897;BME280;25567;48.276;14.242;2023-03-19T02:01:22;98183.03;;;3.04;89.18
39897;BME280;25567;48.276;14.242;2023-03-19T02:03:50;98190.44;;;3.00;89.43
39897;BME280;25567;48.276;14.242;2023-03-19T02:06:19;98192.69;;;3.04;89.85
39897;BME280;25567;48.276;14.242;2023-03-19T02:08:51;98189.91;;;3.05;89.69
39897;BME280;25567;48.276;14.242;2023-03-19T02:11:19;98188.72;;;3.08;89.61
39897;BME280;25567;48.276;14.242;2023-03-19T02:13:46;98176.22;;;3.10;89.69
39897;BME280;25567;48.276;14.242;2023-03-19T02:16:14;98167.13;;;3.06;89.34
39897;BME280;25567;48.276;14.242;2023-03-19T02:18:41;98169.09;;;3.04;89.22
39897;BME280;25567;48.276;14.242;2023-03-19T02:21:12;98177.34;;;3.00;88.88
39897;BME280;25567;48.276;14.242;2023-03-19T02:26:38;98177.16;;;3.02;88.79
39897;BME280;25567;48.276;14.242;2023-03-19T02:29:06;98178.97;;;3.02;88.67
39897;BME280;25567;48.276;14.242;2023-03-19T02:31:33;98176.56;;;3.00;88.81
39897;BME280;25567;48.276;14.242;2023-03-19T02:34:05;98183.72;;;2.91;88.88
39897;BME280;25567;48.276;14.242;2023-03-19T02:36:36;98194.38;;;2.90;88.57
39897;BME280;25567;48.276;14.242;2023-03-19T02:39:07;98209.28;;;2.89;89.20
39897;BME280;25567;48.276;14.242;2023-03-19T02:41:38;98206.22;;;2.86;89.26
39897;BME280;25567;48.276;14.242;2023-03-19T02:44:08;98194.38;;;2.90;89.73
39897;BME280;25567;48.276;14.242;2023-03-19T02:46:37;98206.91;;;2.94;89.13
39897;BME280;25567;48.276;14.242;2023-03-19T02:49:03;98204.22;;;2.88;88.84
39897;BME280;25567;48.276;14.242;2023-03-19T02:51:30;98208.41;;;2.82;88.69
39897;BME280;25567;48.276;14.242;2023-03-19T02:53:57;98203.53;;;2.79;89.13
39897;BME280;25567;48.276;14.242;2023-03-19T02:56:26;98202.69;;;2.78;89.14
39897;BME280;25567;48.276;14.242;2023-03-19T02:58:53;98209.31;;;2.74;88.81
39897;BME280;25567;48.276;14.242;2023-03-19T03:01:19;98210.94;;;2.75;89.06
39897;BME280;25567;48.276;14.242;2023-03-19T03:03:46;98208.97;;;2.77;89.04
39897;BME280;25567;48.276;14.242;2023-03-19T03:06:13;98208.97;;;2.77;89.49
39897;BME280;25567;48.276;14.242;2023-03-19T03:08:39;98213.75;;;2.74;89.00
39897;BME280;25567;48.276;14.242;2023-03-19T03:11:06;98224.41;;;2.72;89.21
39897;BME280;25567;48.276;14.242;2023-03-19T03:13:33;98218.72;;;2.69;89.42
39897;BME280;25567;48.276;14.242;2023-03-19T03:16:00;98212.69;;;2.68;89.31
39897;BME280;25567;48.276;14.242;2023-03-19T03:18:27;98215.22;;;2.61;88.98
39897;BME280;25567;48.276;14.242;2023-03-19T03:20:54;98212.34;;;2.56;89.13
39897;BME280;25567;48.276;14.242;2023-03-19T03:23:20;98210.31;;;2.58;89.25
39897;BME280;25567;48.276;14.242;2023-03-19T03:25:49;98213.31;;;2.55;88.96
39897;BME280;25567;48.276;14.242;2023-03-19T03:28:17;98213.84;;;2.50;89.56
39897;BME280;25567;48.276;14.242;2023-03-19T03:30:45;98225.44;;;2.56;89.59
39897;BME280;25567;48.276;14.242;2023-03-19T03:33:11;98229.56;;;2.50;89.46
39897;BME280;25567;48.276;14.242;2023-03-19T03:35:38;98229.66;;;2.57;89.83
39897;BME280;25567;48.276;14.242;2023-03-19T03:38:05;98229.31;;;2.60;89.45
39897;BME280;25567;48.276;14.242;2023-03-19T03:40:32;98230.28;;;2.59;88.94
39897;BME280;25567;48.276;14.242;2023-03-19T03:43:00;98231.28;;;2.58;89.10
39897;BME280;25567;48.276;14.242;2023-03-19T03:45:26;98232.63;;;2.54;89.22
39897;BME280;25567;48.276;14.242;2023-03-19T03:47:53;98240.50;;;2.54;89.17
39897;BME280;25567;48.276;14.242;2023-03-19T03:50:20;98240.03;;;2.50;88.18
39897;BME280;25567;48.276;14.242;2023-03-19T03:52:47;98240.22;;;2.49;89.25
39897;BME280;25567;48.276;14.242;2023-03-19T03:55:13;98240.03;;;2.50;89.33
39897;BME280;25567;48.276;14.242;2023-03-19T03:57:40;98235.63;;;2.51;89.40
39897;BME280;25567;48.276;14.242;2023-03-19T04:00:08;98236.63;;;2.50;89.44
39897;BME280;25567;48.276;14.242;2023-03-19T04:02:34;98232.38;;;2.49;88.96
39897;BME280;25567;48.276;14.242;2023-03-19T04:05:01;98231.09;;;2.45;89.23
39897;BME280;25567;48.276;14.242;2023-03-19T04:07:28;98232.28;;;2.42;88.91
39897;BME280;25567;48.276;14.242;2023-03-19T04:09:56;98228.22;;;2.40;89.35
39897;BME280;25567;48.276;14.242;2023-03-19T04:12:23;98231.81;;;2.39;89.91
39897;BME280;25567;48.276;14.242;2023-03-19T04:14:50;98223.72;;;2.33;89.39
39897;BME280;25567;48.276;14.242;2023-03-19T04:17:17;98226.16;;;2.35;89.81
39897;BME280;25567;48.276;14.242;2023-03-19T04:19:44;98228.31;;;2.31;89.85
39897;BME280;25567;48.276;14.242;2023-03-19T04:22:11;98223.44;;;2.28;89.70
39897;BME280;25567;48.276;14.242;2023-03-19T04:24:38;98223.09;;;2.31;90.02
39897;BME280;25567;48.276;14.242;2023-03-19T04:27:05;98228.69;;;2.28;89.75
39897;BME280;25567;48.276;14.242;2023-03-19T04:29:32;98229.69;;;2.27;89.98
39897;BME280;25567;48.276;14.242;2023-03-19T04:31:59;98234.91;;;2.27;90.09
39897;BME280;25567;48.276;14.242;2023-03-19T04:34:26;98235.53;;;2.29;89.90
39897;BME280;25567;48.276;14.242;2023-03-19T04:36:52;98238.06;;;2.23;90.16
39897;BME280;25567;48.276;14.242;2023-03-19T04:39:19;98238.59;;;2.18;90.02
39897;BME280;25567;48.276;14.242;2023-03-19T04:41:46;98233.28;;;2.11;90.25
39897;BME280;25567;48.276;14.242;2023-03-19T04:44:12;98222.91;;;2.03;89.91
39897;BME280;25567;48.276;14.242;2023-03-19T04:46:39;98222.97;;;1.95;90.25
39897;BME280;25567;48.276;14.242;2023-03-19T04:49:06;98215.66;;;1.90;90.61
39897;BME280;25567;48.276;14.242;2023-03-19T04:51:33;98224.78;;;1.94;90.61
39897;BME280;25567;48.276;14.242;2023-03-19T04:54:00;98225.56;;;1.95;90.86
39897;BME280;25567;48.276;14.242;2023-03-19T04:56:26;98225.94;;;1.92;91.02
39897;BME280;25567;48.276;14.242;2023-03-19T04:58:56;98228.75;;;1.90;91.77
39897;BME280;25567;48.276;14.242;2023-03-19T05:01:23;98239.09;;;1.83;91.50
39897;BME280;25567;48.276;14.242;2023-03-19T05:03:50;98247.81;;;1.76;91.71
39897;BME280;25567;48.276;14.242;2023-03-19T05:06:17;98246.19;;;1.75;91.70
39897;BME280;25567;48.276;14.242;2023-03-19T05:08:45;98243.06;;;1.79;91.66
39897;BME280;25567;48.276;14.242;2023-03-19T05:11:12;98255.59;;;1.84;91.46
39897;BME280;25567;48.276;14.242;2023-03-19T05:13:39;98257.34;;;1.92;92.29
39897;BME280;25567;48.276;14.242;2023-03-19T05:16:05;98258.84;;;1.86;91.97
39897;BME280;25567;48.276;14.242;2023-03-19T05:18:32;98272.91;;;1.85;92.38
39897;BME280;25567;48.276;14.242;2023-03-19T05:20:59;98285.72;;;1.80;91.92
39897;BME280;25567;48.276;14.242;2023-03-19T05:23:26;98297.63;;;1.82;91.83
39897;BME280;25567;48.276;14.242;2023-03-19T05:25:53;98293.84;;;1.85;91.50
39897;BME280;25567;48.276;14.242;2023-03-19T05:28:20;98293.34;;;1.90;91.98
39897;BME280;25567;48.276;14.242;2023-03-19T05:30:46;98286.91;;;1.92;91.52
39897;BME280;25567;48.276;14.242;2023-03-19T05:33:13;98288.91;;;1.90;91.52
39897;BME280;25567;48.276;14.242;2023-03-19T05:35:40;98284.19;;;1.86;92.05
39897;BME280;25567;48.276;14.242;2023-03-19T05:38:07;98290.56;;;1.83;92.64
39897;BME280;25567;48.276;14.242;2023-03-19T05:40:33;98295.19;;;1.81;93.02
39897;BME280;25567;48.276;14.242;2023-03-19T05:43:02;98286.19;;;1.83;93.99
39897;BME280;25567;48.276;14.242;2023-03-19T05:45:29;98287.91;;;1.91;94.36
39897;BME280;25567;48.276;14.242;2023-03-19T05:47:56;98295.94;;;1.90;93.74
39897;BME280;25567;48.276;14.242;2023-03-19T05:50:22;98292.13;;;1.92;93.45
39897;BME280;25567;48.276;14.242;2023-03-19T05:52:49;98290.16;;;1.94;93.93
39897;BME280;25567;48.276;14.242;2023-03-19T05:55:16;98290.75;;;2.05;94.10
39897;BME280;25567;48.276;14.242;2023-03-19T05:57:43;98284.53;;;2.06;94.18
39897;BME280;25567;48.276;14.242;2023-03-19T06:00:10;98301.31;;;2.11;94.45
39897;BME280;25567;48.276;14.242;2023-03-19T06:02:37;98307.34;;;2.12;94.56
39897;BME280;25567;48.276;14.242;2023-03-19T06:05:05;98302.22;;;2.19;94.68
39897;BME280;25567;48.276;14.242;2023-03-19T06:07:31;98306.94;;;2.23;94.45
39897;BME280;25567;48.276;14.242;2023-03-19T06:10:02;98309.81;;;2.28;95.15
39897;BME280;25567;48.276;14.242;2023-03-19T06:12:29;98309.75;;;2.37;94.24
39897;BME280;25567;48.276;14.242;2023-03-19T06:14:56;98319.84;;;2.40;94.19
39897;BME280;25567;48.276;14.242;2023-03-19T06:17:23;98338.16;;;2.40;93.68
39897;BME280;25567;48.276;14.242;2023-03-19T06:19:49;98330.97;;;2.42;94.03
39897;BME280;25567;48.276;14.242;2023-03-19T06:22:16;98334.03;;;2.45;93.08
39897;BME280;25567;48.276;14.242;2023-03-19T06:24:43;98342.59;;;2.54;94.06
39897;BME280;25567;48.276;14.242;2023-03-19T06:27:09;98354.34;;;2.58;93.78
39897;BME280;25567;48.276;14.242;2023-03-19T06:29:36;98358.88;;;2.64;93.24
39897;BME280;25567;48.276;14.242;2023-03-19T06:32:03;98360.78;;;2.71;92.84
39897;BME280;25567;48.276;14.242;2023-03-19T06:34:30;98363.66;;;2.76;92.43
39897;BME280;25567;48.276;14.242;2023-03-19T06:36:56;98367.00;;;2.84;92.74
39897;BME280;25567;48.276;14.242;2023-03-19T06:39:23;98357.59;;;2.90;93.23
39897;BME280;25567;48.276;14.242;2023-03-19T06:41:50;98357.06;;;2.95;92.79
39897;BME280;25567;48.276;14.242;2023-03-19T06:44:17;98355.53;;;3.00;92.63
39897;BME280;25567;48.276;14.242;2023-03-19T06:46:43;98361.69;;;3.08;92.43
39897;BME280;25567;48.276;14.242;2023-03-19T06:49:10;98362.19;;;3.18;92.24
39897;BME280;25567;48.276;14.242;2023-03-19T06:51:37;98369.16;;;3.26;91.41
39897;BME280;25567;48.276;14.242;2023-03-19T06:54:03;98375.72;;;3.37;90.63
39897;BME280;25567;48.276;14.242;2023-03-19T06:56:30;98381.94;;;3.50;90.07
39897;BME280;25567;48.276;14.242;2023-03-19T06:58:57;98388.53;;;3.61;88.50
39897;BME280;25567;48.276;14.242;2023-03-19T07:01:23;98393.53;;;3.78;86.89
39897;BME280;25567;48.276;14.242;2023-03-19T07:03:50;98383.94;;;3.85;85.97
39897;BME280;25567;48.276;14.242;2023-03-19T07:06:17;98389.91;;;4.00;85.18
39897;BME280;25567;48.276;14.242;2023-03-19T07:08:44;98390.22;;;4.12;84.31
39897;BME280;25567;48.276;14.242;2023-03-19T07:11:12;98390.19;;;4.27;82.95
39897;BME280;25567;48.276;14.242;2023-03-19T07:13:39;98381.56;;;4.40;80.91
39897;BME280;25567;48.276;14.242;2023-03-19T07:16:07;98384.09;;;4.48;79.17
39897;BME280;25567;48.276;14.242;2023-03-19T07:18:34;98385.72;;;4.56;79.32
39897;BME280;25567;48.276;14.242;2023-03-19T07:21:01;98387.59;;;4.62;78.73
39897;BME280;25567;48.276;14.242;2023-03-19T07:23:27;98382.19;;;4.71;77.96
39897;BME280;25567;48.276;14.242;2023-03-19T07:25:54;98378.25;;;4.81;77.67
39897;BME280;25567;48.276;14.242;2023-03-19T07:28:21;98379.53;;;4.92;77.31
39897;BME280;25567;48.276;14.242;2023-03-19T07:30:50;98393.28;;;5.01;76.05
39897;BME280;25567;48.276;14.242;2023-03-19T07:33:18;98404.69;;;5.08;75.40
39897;BME280;25567;48.276;14.242;2023-03-19T07:35:45;98404.50;;;5.16;75.32
39897;BME280;25567;48.276;14.242;2023-03-19T07:38:12;98397.66;;;5.22;74.87
39897;BME280;25567;48.276;14.242;2023-03-19T07:40:40;98385.78;;;5.40;73.45
39897;BME280;25567;48.276;14.242;2023-03-19T07:43:16;98387.09;;;5.57;72.64
39897;BME280;25567;48.276;14.242;2023-03-19T07:45:43;98390.31;;;5.59;72.63
39897;BME280;25567;48.276;14.242;2023-03-19T07:48:10;98394.38;;;5.68;73.08
39897;BME280;25567;48.276;14.242;2023-03-19T07:50:37;98394.16;;;5.63;72.92
39897;BME280;25567;48.276;14.242;2023-03-19T07:53:04;98396.78;;;5.57;72.18
39897;BME280;25567;48.276;14.242;2023-03-19T07:55:31;98405.72;;;5.62;71.64
39897;BME280;25567;48.276;14.242;2023-03-19T07:57:58;98408.38;;;5.69;70.35
39897;BME280;25567;48.276;14.242;2023-03-19T08:00:25;98403.50;;;5.73;69.89
39897;BME280;25567;48.276;14.242;2023-03-19T08:02:52;98399.47;;;5.83;70.20
39897;BME280;25567;48.276;14.242;2023-03-19T08:05:19;98405.38;;;5.92;70.68
39897;BME280;25567;48.276;14.242;2023-03-19T08:07:47;98401.78;;;6.00;70.86
39897;BME280;25567;48.276;14.242;2023-03-19T08:10:15;98394.91;;;6.06;70.13
39897;BME280;25567;48.276;14.242;2023-03-19T08:12:41;98402.63;;;6.14;69.85
39897;BME280;25567;48.276;14.242;2023-03-19T08:15:09;98400.41;;;6.17;69.75
39897;BME280;25567;48.276;14.242;2023-03-19T08:17:37;98405.25;;;6.21;69.88
39897;BME280;25567;48.276;14.242;2023-03-19T08:20:06;98409.13;;;6.31;68.93
39897;BME280;25567;48.276;14.242;2023-03-19T08:22:35;98405.06;;;6.49;69.14
39897;BME280;25567;48.276;14.242;2023-03-19T08:25:04;98420.69;;;6.57;68.46
39897;BME280;25567;48.276;14.242;2023-03-19T08:27:32;98420.88;;;6.56;68.70
39897;BME280;25567;48.276;14.242;2023-03-19T08:30:02;98420.88;;;6.62;67.21
39897;BME280;25567;48.276;14.242;2023-03-19T08:32:29;98428.16;;;6.74;66.84
39897;BME280;25567;48.276;14.242;2023-03-19T08:34:56;98432.03;;;6.78;66.57
39897;BME280;25567;48.276;14.242;2023-03-19T08:37:23;98425.94;;;6.84;65.73
39897;BME280;25567;48.276;14.242;2023-03-19T08:39:50;98418.84;;;6.91;66.67
39897;BME280;25567;48.276;14.242;2023-03-19T08:42:18;98410.28;;;7.03;65.97
39897;BME280;25567;48.276;14.242;2023-03-19T08:44:45;98416.75;;;7.13;66.45
39897;BME280;25567;48.276;14.242;2023-03-19T08:47:12;98416.34;;;7.16;66.24
39897;BME280;25567;48.276;14.242;2023-03-19T08:49:38;98416.91;;;7.25;66.16
39897;BME280;25567;48.276;14.242;2023-03-19T08:52:06;98416.66;;;7.47;65.82
39897;BME280;25567;48.276;14.242;2023-03-19T08:54:34;98414.75;;;7.61;64.32
39897;BME280;25567;48.276;14.242;2023-03-19T08:57:02;98414.06;;;7.79;66.54
39897;BME280;25567;48.276;14.242;2023-03-19T08:59:32;98411.41;;;7.85;64.22
39897;BME280;25567;48.276;14.242;2023-03-19T09:02:00;98415.19;;;7.96;64.58
39897;BME280;25567;48.276;14.242;2023-03-19T09:04:27;98421.75;;;8.19;63.87
39897;BME280;25567;48.276;14.242;2023-03-19T09:06:54;98429.25;;;8.22;63.03
39897;BME280;25567;48.276;14.242;2023-03-19T09:09:22;98424.63;;;8.43;62.09
39897;BME280;25567;48.276;14.242;2023-03-19T09:11:50;98419.97;;;8.45;62.35
39897;BME280;25567;48.276;14.242;2023-03-19T09:14:16;98428.28;;;8.42;61.30
39897;BME280;25567;48.276;14.242;2023-03-19T09:16:45;98434.34;;;8.56;62.16
39897;BME280;25567;48.276;14.242;2023-03-19T09:19:12;98426.13;;;8.64;63.30
39897;BME280;25567;48.276;14.242;2023-03-19T09:21:39;98426.13;;;8.64;62.54
39897;BME280;25567;48.276;14.242;2023-03-19T09:24:06;98424.66;;;8.68;62.61
39897;BME280;25567;48.276;14.242;2023-03-19T09:26:33;98422.91;;;8.80;61.97
39897;BME280;25567;48.276;14.242;2023-03-19T09:29:00;98421.69;;;8.83;61.96
39897;BME280;25567;48.276;14.242;2023-03-19T09:31:27;98419.78;;;8.90;62.38
39897;BME280;25567;48.276;14.242;2023-03-19T09:33:55;98411.72;;;9.04;60.46
39897;BME280;25567;48.276;14.242;2023-03-19T09:36:22;98412.75;;;9.02;61.06
39897;BME280;25567;48.276;14.242;2023-03-19T09:38:49;98410.09;;;9.02;60.82
39897;BME280;25567;48.276;14.242;2023-03-19T09:43:57;98411.28;;;9.07;59.36
39897;BME280;25567;48.276;14.242;2023-03-19T09:46:31;98417.19;;;9.09;60.94
39897;BME280;25567;48.276;14.242;2023-03-19T09:49:11;98413.34;;;9.05;59.65
39897;BME280;25567;48.276;14.242;2023-03-19T09:54:31;98407.91;;;9.18;59.58
39897;BME280;25567;48.276;14.242;2023-03-19T09:56:59;98408.88;;;9.24;60.44
39897;BME280;25567;48.276;14.242;2023-03-19T09:59:27;98406.75;;;9.32;59.67
39897;BME280;25567;48.276;14.242;2023-03-19T10:02:12;98415.78;;;9.43;59.39
39897;BME280;25567;48.276;14.242;2023-03-19T10:15:46;98407.38;;;9.95;57.27
39897;BME280;25567;48.276;14.242;2023-03-19T10:18:18;98411.09;;;10.06;56.29
39897;BME280;25567;48.276;14.242;2023-03-19T10:21:03;98411.72;;;10.20;56.25
39897;BME280;25567;48.276;14.242;2023-03-19T10:23:49;98404.00;;;10.30;57.28
39897;BME280;25567;48.276;14.242;2023-03-19T10:26:19;98411.88;;;10.49;58.07
39897;BME280;25567;48.276;14.242;2023-03-19T10:28:57;98398.88;;;10.59;56.25
39897;BME280;25567;48.276;14.242;2023-03-19T10:31:41;98401.53;;;10.71;56.88
39897;BME280;25567;48.276;14.242;2023-03-19T10:34:23;98400.84;;;10.88;56.85
39897;BME280;25567;48.276;14.242;2023-03-19T10:37:14;98395.63;;;10.93;55.68
39897;BME280;25567;48.276;14.242;2023-03-19T10:39:43;98396.34;;;11.00;56.54
39897;BME280;25567;48.276;14.242;2023-03-19T10:42:37;98390.75;;;11.25;56.34
39897;BME280;25567;48.276;14.242;2023-03-19T10:45:23;98392.50;;;11.20;56.69
39897;BME280;25567;48.276;14.242;2023-03-19T10:47:52;98384.53;;;11.20;55.68
39897;BME280;25567;48.276;14.242;2023-03-19T10:50:28;98389.00;;;11.31;57.18
39897;BME280;25567;48.276;14.242;2023-03-19T10:53:06;98386.03;;;11.27;56.49
39897;BME280;25567;48.276;14.242;2023-03-19T10:55:47;98384.28;;;11.33;57.64
39897;BME280;25567;48.276;14.242;2023-03-19T10:58:18;98384.00;;;11.46;57.66
39897;BME280;25567;48.276;14.242;2023-03-19T11:00:47;98386.53;;;11.53;58.72
39897;BME280;25567;48.276;14.242;2023-03-19T11:03:31;98381.13;;;11.48;58.66
39897;BME280;25567;48.276;14.242;2023-03-19T11:06:26;98385.59;;;11.59;59.14
39897;BME280;25567;48.276;14.242;2023-03-19T11:09:00;98371.00;;;11.74;60.48
39897;BME280;25567;48.276;14.242;2023-03-19T11:11:34;98367.25;;;11.75;58.99
39897;BME280;25567;48.276;14.242;2023-03-19T11:14:07;98365.38;;;11.87;58.80
39897;BME280;25567;48.276;14.242;2023-03-19T11:16:53;98366.81;;;11.78;57.98
39897;BME280;25567;48.276;14.242;2023-03-19T11:19:24;98358.44;;;11.86;58.37
39897;BME280;25567;48.276;14.242;2023-03-19T11:21:59;98360.63;;;11.89;58.18
39897;BME280;25567;48.276;14.242;2023-03-19T11:24:27;98360.94;;;11.93;58.35
39897;BME280;25567;48.276;14.242;2023-03-19T11:26:56;98358.03;;;11.94;58.67
39897;BME280;25567;48.276;14.242;2023-03-19T11:29:26;98352.38;;;12.02;58.69
39897;BME280;25567;48.276;14.242;2023-03-19T11:35:06;98345.84;;;12.10;57.91
39897;BME280;25567;48.276;14.242;2023-03-19T11:40:28;98342.16;;;12.11;59.14
39897;BME280;25567;48.276;14.242;2023-03-19T11:46:00;98340.78;;;12.43;58.26
39897;BME280;25567;48.276;14.242;2023-03-19T11:56:40;98320.63;;;12.86;56.96
39897;BME280;25567;48.276;14.242;2023-03-19T11:59:27;98312.31;;;13.05;56.55
39897;BME280;25567;48.276;14.242;2023-03-19T12:12:45;98310.66;;;13.43;57.52
39897;BME280;25567;48.276;14.242;2023-03-19T12:18:00;98304.63;;;13.52;56.59
39897;BME280;25567;48.276;14.242;2023-03-19T12:20:40;98314.22;;;13.54;57.83
39897;BME280;25567;48.276;14.242;2023-03-19T12:23:16;98299.66;;;13.61;57.61
39897;BME280;25567;48.276;14.242;2023-03-19T12:25:53;98309.16;;;13.79;58.54
39897;BME280;25567;48.276;14.242;2023-03-19T12:28:28;98303.84;;;13.84;57.38
39897;BME280;25567;48.276;14.242;2023-03-19T12:36:27;98288.28;;;14.04;57.88
39897;BME280;25567;48.276;14.242;2023-03-19T12:39:02;98293.19;;;14.17;57.34
39897;BME280;25567;48.276;14.242;2023-03-19T12:41:31;98290.63;;;14.32;57.66
39897;BME280;25567;48.276;14.242;2023-03-19T12:47:02;98286.47;;;14.52;57.99
39897;BME280;25567;48.276;14.242;2023-03-19T12:49:47;98297.44;;;14.56;57.38
39897;BME280;25567;48.276;14.242;2023-03-19T12:54:49;98287.72;;;14.82;57.44
39897;BME280;25567;48.276;14.242;2023-03-19T12:57:28;98285.34;;;14.86;57.42
39897;BME280;25567;48.276;14.242;2023-03-19T13:00:06;98290.97;;;14.94;56.78
39897;BME280;25567;48.276;14.242;2023-03-19T13:02:47;98283.22;;;14.93;57.47
39897;BME280;25567;48.276;14.242;2023-03-19T13:08:18;98281.91;;;14.95;57.28
39897;BME280;25567;48.276;14.242;2023-03-19T13:10:48;98275.00;;;15.05;57.50
39897;BME280;25567;48.276;14.242;2023-03-19T13:15:56;98263.81;;;15.18;58.92
39897;BME280;25567;48.276;14.242;2023-03-19T13:24:03;98258.81;;;15.52;58.77
39897;BME280;25567;48.276;14.242;2023-03-19T13:26:34;98258.31;;;15.56;58.23
39897;BME280;25567;48.276;14.242;2023-03-19T13:29:10;98256.69;;;15.55;58.28
39897;BME280;25567;48.276;14.242;2023-03-19T13:31:42;98262.31;;;15.53;57.26
39897;BME280;25567;48.276;14.242;2023-03-19T13:34:19;98254.78;;;15.40;56.83
39897;BME280;25567;48.276;14.242;2023-03-19T13:36:52;98253.19;;;15.39;57.98
39897;BME280;25567;48.276;14.242;2023-03-19T13:39:24;98253.72;;;15.46;58.23
39897;BME280;25567;48.276;14.242;2023-03-19T13:44:39;98250.00;;;15.47;57.62
39897;BME280;25567;48.276;14.242;2023-03-19T13:47:36;98258.53;;;15.54;58.08
39897;BME280;25567;48.276;14.242;2023-03-19T13:55:28;98259.88;;;15.46;56.72
39897;BME280;25567;48.276;14.242;2023-03-19T13:58:12;98251.88;;;15.46;56.84
39897;BME280;25567;48.276;14.242;2023-03-19T14:03:27;98256.41;;;15.56;56.41
39897;BME280;25567;48.276;14.242;2023-03-19T14:05:56;98254.53;;;15.51;57.34
39897;BME280;25567;48.276;14.242;2023-03-19T14:08:27;98259.03;;;15.35;57.06
39897;BME280;25567;48.276;14.242;2023-03-19T14:11:00;98253.75;;;15.56;57.29
39897;BME280;25567;48.276;14.242;2023-03-19T14:16:23;98255.88;;;15.54;57.02
39897;BME280;25567;48.276;14.242;2023-03-19T14:18:56;98249.19;;;15.46;56.43
39897;BME280;25567;48.276;14.242;2023-03-19T14:27:27;98251.03;;;15.41;56.72
39897;BME280;25567;48.276;14.242;2023-03-19T14:30:06;98245.66;;;15.30;57.45
39897;BME280;25567;48.276;14.242;2023-03-19T14:32:35;98255.03;;;15.23;58.35
39897;BME280;25567;48.276;14.242;2023-03-19T14:35:10;98256.34;;;15.30;57.77
39897;BME280;25567;48.276;14.242;2023-03-19T14:37:49;98245.13;;;15.18;57.88
39897;BME280;25567;48.276;14.242;2023-03-19T14:40:23;98240.31;;;15.15;57.80